EIN99TA LIMC-LATI
Flight info
| Callsign | EIN99TA |
|---|---|
| Flight time | N/A |
| Altitude | 39000 |
| Route | VAKON DCT OTKEK DCT SOVUB DCT BAXON DCT SPL DCT GEBNI DCT MADOS DCT BALHA DCT TIBRI DCT BIGLO L187 LASTI L607 PETAK |
| Aircraft | A20N/M-SDE2E3FGHIJ1RWXY/LB1 |
Departure
| Time | 2026-05-01 13:44 |
|---|---|
| Airport | Milan Malpensa International Airport (LIMC) |
Arrival
| Time | N/A |
|---|---|
| Airport | Tirana International Airport Mother Teresa (LATI) |
| Time | Latitude | Longitude | Altitude | Speed | Heading |
|---|---|---|---|---|---|
| 2026-05-01 13:23 | 45.62537 | 8.71971 | 730 ft | 0 kts | 79° |
| 2026-05-01 13:35 | 45.62533 | 8.71939 | 728 ft | 3 kts | 84° |
| 2026-05-01 13:35 | 45.62532 | 8.71900 | 728 ft | 4 kts | 98° |
| 2026-05-01 13:35 | 45.62552 | 8.71859 | 730 ft | 1 kts | 169° |
| 2026-05-01 13:36 | 45.62553 | 8.71859 | 730 ft | 0 kts | 169° |
| 2026-05-01 13:39 | 45.62550 | 8.71860 | 730 ft | 2 kts | 169° |
| 2026-05-01 13:39 | 45.62511 | 8.71871 | 731 ft | 10 kts | 168° |
| 2026-05-01 13:39 | 45.62423 | 8.71897 | 730 ft | 16 kts | 168° |
| 2026-05-01 13:39 | 45.62351 | 8.71989 | 726 ft | 17 kts | 81° |
| 2026-05-01 13:40 | 45.62376 | 8.72158 | 726 ft | 18 kts | 83° |
| 2026-05-01 13:40 | 45.62287 | 8.72250 | 725 ft | 18 kts | 173° |
| 2026-05-01 13:40 | 45.62231 | 8.72365 | 722 ft | 16 kts | 78° |
| 2026-05-01 13:40 | 45.62253 | 8.72535 | 723 ft | 18 kts | 77° |
| 2026-05-01 13:41 | 45.62281 | 8.72725 | 725 ft | 21 kts | 79° |
| 2026-05-01 13:41 | 45.62307 | 8.72937 | 721 ft | 22 kts | 80° |
| 2026-05-01 13:41 | 45.62205 | 8.73044 | 719 ft | 22 kts | 168° |
| 2026-05-01 13:41 | 45.62049 | 8.73092 | 719 ft | 24 kts | 169° |
| 2026-05-01 13:42 | 45.61877 | 8.73138 | 712 ft | 26 kts | 169° |
| 2026-05-01 13:42 | 45.61718 | 8.73261 | 700 ft | 28 kts | 124° |
| 2026-05-01 13:42 | 45.61608 | 8.73494 | 695 ft | 26 kts | 120° |
| 2026-05-01 13:42 | 45.61586 | 8.73598 | 702 ft | 0 kts | 87° |
| 2026-05-01 13:43 | 45.61586 | 8.73599 | 702 ft | 1 kts | 87° |
| 2026-05-01 13:43 | 45.61590 | 8.73656 | 693 ft | 11 kts | 79° |
| 2026-05-01 13:43 | 45.61654 | 8.73725 | 701 ft | 14 kts | 354° |
| 2026-05-01 13:43 | 45.61749 | 8.73697 | 696 ft | 15 kts | 348° |
| 2026-05-01 13:44 | 45.61919 | 8.73652 | 705 ft | 54 kts | 349° |
| 2026-05-01 13:44 | 45.62565 | 8.73474 | 723 ft | 131 kts | 348° |
| 2026-05-01 13:44 | 45.63659 | 8.73171 | 809 ft | 182 kts | 348° |
| 2026-05-01 13:44 | 45.64917 | 8.72850 | 1612 ft | 186 kts | 352° |
| 2026-05-01 13:45 | 45.66235 | 8.72622 | 2507 ft | 194 kts | 354° |
| 2026-05-01 13:45 | 45.67566 | 8.72555 | 3124 ft | 204 kts | 2° |
| 2026-05-01 13:45 | 45.68928 | 8.72811 | 3805 ft | 212 kts | 21° |
| 2026-05-01 13:45 | 45.70070 | 8.74075 | 4693 ft | 209 kts | 56° |
| 2026-05-01 13:46 | 45.70580 | 8.76006 | 5490 ft | 210 kts | 78° |
| 2026-05-01 13:46 | 45.70752 | 8.78114 | 6124 ft | 223 kts | 95° |
| 2026-05-01 13:46 | 45.70191 | 8.80275 | 6612 ft | 241 kts | 129° |
| 2026-05-01 13:46 | 45.68950 | 8.81893 | 7447 ft | 243 kts | 144° |
| 2026-05-01 13:47 | 45.67532 | 8.83219 | 8321 ft | 245 kts | 148° |
| 2026-05-01 13:47 | 45.66066 | 8.84519 | 9179 ft | 249 kts | 147° |
| 2026-05-01 13:47 | 45.64603 | 8.85874 | 10024 ft | 253 kts | 146° |
| 2026-05-01 13:47 | 45.63177 | 8.87255 | 10797 ft | 256 kts | 144° |
| 2026-05-01 13:48 | 45.61733 | 8.88692 | 11574 ft | 259 kts | 144° |
| 2026-05-01 13:48 | 45.60193 | 8.90142 | 12331 ft | 263 kts | 152° |
| 2026-05-01 13:48 | 45.58464 | 8.90971 | 13068 ft | 270 kts | 170° |
| 2026-05-01 13:48 | 45.56531 | 8.91207 | 13664 ft | 283 kts | 174° |
| 2026-05-01 13:49 | 45.54493 | 8.91521 | 13894 ft | 305 kts | 164° |
| 2026-05-01 13:49 | 45.52518 | 8.92771 | 14123 ft | 323 kts | 142° |
| 2026-05-01 13:49 | 45.50920 | 8.95121 | 14317 ft | 340 kts | 120° |
| 2026-05-01 13:49 | 45.50012 | 8.98352 | 14651 ft | 350 kts | 98° |
| 2026-05-01 13:50 | 45.49849 | 9.01809 | 15359 ft | 350 kts | 90° |
| 2026-05-01 13:50 | 45.49820 | 9.05281 | 16085 ft | 353 kts | 89° |
| 2026-05-01 13:50 | 45.49801 | 9.08789 | 16781 ft | 357 kts | 89° |
| 2026-05-01 13:50 | 45.49765 | 9.12360 | 17494 ft | 360 kts | 89° |
| 2026-05-01 13:51 | 45.49714 | 9.15949 | 18178 ft | 363 kts | 89° |
| 2026-05-01 13:51 | 45.49651 | 9.19588 | 18817 ft | 367 kts | 90° |
| 2026-05-01 13:51 | 45.49580 | 9.23228 | 19392 ft | 371 kts | 89° |
| 2026-05-01 13:51 | 45.49506 | 9.26924 | 19943 ft | 375 kts | 89° |
| 2026-05-01 13:52 | 45.49429 | 9.30663 | 20509 ft | 378 kts | 89° |
| 2026-05-01 13:52 | 45.49351 | 9.34437 | 21069 ft | 382 kts | 89° |
| 2026-05-01 13:52 | 45.49270 | 9.38238 | 21621 ft | 386 kts | 89° |
| 2026-05-01 13:52 | 45.49188 | 9.42085 | 22036 ft | 390 kts | 89° |
| 2026-05-01 13:53 | 45.49106 | 9.45897 | 22568 ft | 393 kts | 89° |
| 2026-05-01 13:53 | 45.48933 | 9.53770 | 23635 ft | 401 kts | 88° |
| 2026-05-01 13:53 | 45.48842 | 9.57764 | 24118 ft | 404 kts | 88° |
| 2026-05-01 13:54 | 45.48750 | 9.61778 | 24592 ft | 406 kts | 89° |
| 2026-05-01 13:54 | 45.48655 | 9.65856 | 25080 ft | 409 kts | 89° |
| 2026-05-01 13:54 | 45.48558 | 9.69926 | 25544 ft | 411 kts | 89° |
| 2026-05-01 13:54 | 45.48460 | 9.74003 | 26004 ft | 414 kts | 89° |
| 2026-05-01 13:55 | 45.48360 | 9.78126 | 26544 ft | 416 kts | 89° |
| 2026-05-01 13:55 | 45.48258 | 9.82260 | 26980 ft | 418 kts | 89° |
| 2026-05-01 13:55 | 45.48154 | 9.86408 | 27407 ft | 420 kts | 89° |
| 2026-05-01 13:55 | 45.48047 | 9.90588 | 27803 ft | 423 kts | 89° |
| 2026-05-01 13:56 | 45.47939 | 9.94773 | 28191 ft | 425 kts | 89° |
| 2026-05-01 13:56 | 45.47762 | 9.99002 | 28596 ft | 428 kts | 93° |
| 2026-05-01 13:56 | 45.47278 | 10.03211 | 28964 ft | 434 kts | 99° |
| 2026-05-01 13:56 | 45.46558 | 10.07415 | 29320 ft | 436 kts | 100° |
| 2026-05-01 13:57 | 45.45842 | 10.11633 | 29675 ft | 438 kts | 99° |
| 2026-05-01 13:57 | 45.45371 | 10.14430 | 29902 ft | 440 kts | 99° |
| 2026-05-01 13:57 | 45.44415 | 10.20105 | 30363 ft | 442 kts | 99° |
| 2026-05-01 13:57 | 45.43695 | 10.24368 | 30673 ft | 444 kts | 99° |
| 2026-05-01 13:58 | 45.42967 | 10.28657 | 30973 ft | 446 kts | 99° |
| 2026-05-01 13:58 | 45.42236 | 10.32955 | 31264 ft | 448 kts | 99° |
| 2026-05-01 13:58 | 45.41504 | 10.37250 | 31594 ft | 449 kts | 100° |
| 2026-05-01 13:58 | 45.40762 | 10.41585 | 31991 ft | 448 kts | 100° |
| 2026-05-01 13:59 | 45.40025 | 10.45878 | 32370 ft | 447 kts | 100° |
| 2026-05-01 13:59 | 45.39288 | 10.50165 | 32751 ft | 446 kts | 100° |
| 2026-05-01 13:59 | 45.38550 | 10.54452 | 33131 ft | 445 kts | 100° |
| 2026-05-01 13:59 | 45.38059 | 10.57293 | 33387 ft | 444 kts | 100° |
| 2026-05-01 14:00 | 45.37318 | 10.61565 | 33758 ft | 443 kts | 101° |
| 2026-05-01 14:00 | 45.36393 | 10.65762 | 34110 ft | 446 kts | 107° |
| 2026-05-01 14:00 | 45.34745 | 10.71120 | 34526 ft | 447 kts | 110° |
| 2026-05-01 14:00 | 45.33866 | 10.73852 | 34673 ft | 448 kts | 110° |
| 2026-05-01 14:01 | 45.32594 | 10.77831 | 34889 ft | 448 kts | 110° |
| 2026-05-01 14:01 | 45.31304 | 10.81874 | 35114 ft | 449 kts | 110° |
| 2026-05-01 14:01 | 45.30014 | 10.85913 | 35315 ft | 449 kts | 110° |
| 2026-05-01 14:01 | 45.28725 | 10.89940 | 35540 ft | 450 kts | 110° |
| 2026-05-01 14:02 | 45.27424 | 10.93997 | 35741 ft | 451 kts | 110° |
| 2026-05-01 14:02 | 45.26121 | 10.98050 | 35943 ft | 451 kts | 110° |
| 2026-05-01 14:02 | 45.24817 | 11.02102 | 36146 ft | 451 kts | 110° |
| 2026-05-01 14:02 | 45.23509 | 11.06160 | 36340 ft | 452 kts | 110° |
| 2026-05-01 14:03 | 45.22202 | 11.10207 | 36528 ft | 452 kts | 110° |
| 2026-05-01 14:03 | 45.20890 | 11.14265 | 36717 ft | 453 kts | 110° |
| 2026-05-01 14:03 | 45.19571 | 11.18336 | 36898 ft | 453 kts | 110° |
| 2026-05-01 14:03 | 45.18257 | 11.22389 | 37074 ft | 453 kts | 110° |
| 2026-05-01 14:04 | 45.16938 | 11.26449 | 37244 ft | 454 kts | 110° |
| 2026-05-01 14:04 | 45.15614 | 11.30517 | 37408 ft | 454 kts | 110° |
| 2026-05-01 14:04 | 45.14289 | 11.34585 | 37578 ft | 454 kts | 110° |
| 2026-05-01 14:04 | 45.12962 | 11.38648 | 37748 ft | 455 kts | 110° |
| 2026-05-01 14:05 | 45.11630 | 11.42723 | 37900 ft | 455 kts | 110° |
| 2026-05-01 14:05 | 45.10298 | 11.46792 | 38059 ft | 455 kts | 110° |
| 2026-05-01 14:05 | 45.08965 | 11.50855 | 38199 ft | 455 kts | 110° |
| 2026-05-01 14:05 | 45.07630 | 11.54921 | 38349 ft | 456 kts | 110° |
| 2026-05-01 14:06 | 45.06294 | 11.58981 | 38482 ft | 456 kts | 110° |
| 2026-05-01 14:06 | 45.04950 | 11.63059 | 38609 ft | 456 kts | 110° |
| 2026-05-01 14:06 | 45.03608 | 11.67126 | 38756 ft | 456 kts | 110° |
| 2026-05-01 14:06 | 45.02265 | 11.71191 | 38890 ft | 457 kts | 111° |
| 2026-05-01 14:07 | 45.00918 | 11.75259 | 39007 ft | 457 kts | 111° |
| 2026-05-01 14:07 | 44.99573 | 11.79315 | 39120 ft | 457 kts | 111° |
| 2026-05-01 14:07 | 44.98226 | 11.83373 | 39237 ft | 456 kts | 111° |
| 2026-05-01 14:08 | 44.95520 | 11.91505 | 39368 ft | 456 kts | 111° |
| 2026-05-01 14:08 | 44.92822 | 11.99588 | 39373 ft | 455 kts | 111° |
| 2026-05-01 14:09 | 44.90101 | 12.07660 | 39374 ft | 455 kts | 111° |
| 2026-05-01 14:09 | 44.87346 | 12.15713 | 39375 ft | 455 kts | 111° |
| 2026-05-01 14:10 | 44.84616 | 12.23683 | 39378 ft | 455 kts | 111° |
| 2026-05-01 14:10 | 44.81821 | 12.31826 | 39375 ft | 454 kts | 111° |
| 2026-05-01 14:11 | 44.79063 | 12.39840 | 39371 ft | 454 kts | 111° |
| 2026-05-01 14:11 | 44.74918 | 12.51841 | 39364 ft | 453 kts | 111° |
| 2026-05-01 14:12 | 44.72161 | 12.59792 | 39366 ft | 453 kts | 111° |
| 2026-05-01 14:12 | 44.69393 | 12.67752 | 39354 ft | 452 kts | 111° |
| 2026-05-01 14:13 | 44.67097 | 12.74337 | 39344 ft | 452 kts | 111° |
| 2026-05-01 14:13 | 44.63858 | 12.83598 | 39340 ft | 451 kts | 111° |
| 2026-05-01 14:14 | 44.61105 | 12.91445 | 39331 ft | 451 kts | 111° |
| 2026-05-01 14:14 | 44.58329 | 12.99336 | 39322 ft | 451 kts | 111° |
| 2026-05-01 14:15 | 44.55548 | 13.07218 | 39322 ft | 450 kts | 111° |
| 2026-05-01 14:15 | 44.52763 | 13.15087 | 39324 ft | 450 kts | 111° |
| 2026-05-01 14:16 | 44.49973 | 13.22950 | 39323 ft | 450 kts | 111° |
| 2026-05-01 14:16 | 44.47178 | 13.30803 | 39318 ft | 451 kts | 111° |
| 2026-05-01 14:17 | 44.44376 | 13.38652 | 39318 ft | 451 kts | 111° |
| 2026-05-01 14:17 | 44.41568 | 13.46497 | 39316 ft | 451 kts | 111° |
| 2026-05-01 14:18 | 44.39023 | 13.54463 | 39318 ft | 448 kts | 108° |
| 2026-05-01 14:18 | 44.37014 | 13.61214 | 39322 ft | 448 kts | 108° |
| 2026-05-01 14:19 | 44.34177 | 13.70532 | 39321 ft | 448 kts | 108° |
| 2026-05-01 14:19 | 44.31696 | 13.78550 | 39321 ft | 448 kts | 108° |
| 2026-05-01 14:20 | 44.27971 | 13.90524 | 39316 ft | 448 kts | 109° |
| 2026-05-01 14:21 | 44.25483 | 13.98496 | 39299 ft | 448 kts | 109° |
| 2026-05-01 14:21 | 44.22991 | 14.06453 | 39301 ft | 448 kts | 109° |
| 2026-05-01 14:22 | 44.19253 | 14.18347 | 39289 ft | 448 kts | 109° |
| 2026-05-01 14:22 | 44.16745 | 14.26295 | 39286 ft | 448 kts | 109° |
| 2026-05-01 14:23 | 44.14234 | 14.34229 | 39284 ft | 448 kts | 110° |
| 2026-05-01 14:23 | 44.11719 | 14.42151 | 39281 ft | 448 kts | 110° |
| 2026-05-01 14:24 | 44.09197 | 14.50073 | 39281 ft | 448 kts | 110° |
| 2026-05-01 14:24 | 44.06660 | 14.58013 | 39278 ft | 448 kts | 110° |
| 2026-05-01 14:25 | 44.04118 | 14.65947 | 39280 ft | 449 kts | 110° |
| 2026-05-01 14:25 | 44.01575 | 14.73860 | 39282 ft | 449 kts | 110° |
| 2026-05-01 14:26 | 43.97760 | 14.85689 | 39285 ft | 449 kts | 110° |
| 2026-05-01 14:27 | 43.95196 | 14.93606 | 39272 ft | 448 kts | 110° |
| 2026-05-01 14:27 | 43.92641 | 15.01474 | 39266 ft | 448 kts | 110° |
| 2026-05-01 14:28 | 43.88785 | 15.13305 | 39264 ft | 449 kts | 110° |
| 2026-05-01 14:28 | 43.86209 | 15.21181 | 39262 ft | 449 kts | 111° |
| 2026-05-01 14:29 | 43.83621 | 15.29068 | 39264 ft | 450 kts | 111° |
| 2026-05-01 14:30 | 43.78415 | 15.44863 | 39259 ft | 451 kts | 111° |
| 2026-05-01 14:31 | 43.74489 | 15.56713 | 39249 ft | 452 kts | 111° |
| 2026-05-01 14:31 | 43.71871 | 15.64588 | 39244 ft | 453 kts | 111° |
| 2026-05-01 14:32 | 43.69231 | 15.72500 | 39240 ft | 454 kts | 111° |
| 2026-05-01 14:32 | 43.66578 | 15.80432 | 39237 ft | 454 kts | 111° |
| 2026-05-01 14:33 | 43.63920 | 15.88356 | 39226 ft | 455 kts | 111° |
| 2026-05-01 14:33 | 43.61252 | 15.96284 | 39220 ft | 456 kts | 111° |
| 2026-05-01 14:34 | 43.58574 | 16.04222 | 39213 ft | 457 kts | 111° |
| 2026-05-01 14:34 | 43.55883 | 16.12174 | 39212 ft | 457 kts | 111° |
| 2026-05-01 14:35 | 43.53184 | 16.20123 | 39205 ft | 458 kts | 111° |
| 2026-05-01 14:35 | 43.50494 | 16.28034 | 39204 ft | 459 kts | 111° |
| 2026-05-01 14:36 | 43.47622 | 16.35916 | 39204 ft | 461 kts | 114° |
| 2026-05-01 14:36 | 43.44726 | 16.43791 | 39198 ft | 461 kts | 113° |
| 2026-05-01 14:37 | 43.42312 | 16.50343 | 39200 ft | 462 kts | 113° |
| 2026-05-01 14:37 | 43.39391 | 16.58223 | 39199 ft | 463 kts | 114° |
| 2026-05-01 14:38 | 43.36452 | 16.66117 | 39202 ft | 464 kts | 114° |
| 2026-05-01 14:38 | 43.33501 | 16.74020 | 39211 ft | 465 kts | 114° |
| 2026-05-01 14:39 | 43.30542 | 16.81925 | 39217 ft | 467 kts | 114° |
| 2026-05-01 14:39 | 43.27564 | 16.89856 | 39201 ft | 465 kts | 114° |
| 2026-05-01 14:40 | 43.24596 | 16.97737 | 39202 ft | 465 kts | 114° |
| 2026-05-01 14:40 | 43.21615 | 17.05632 | 39196 ft | 466 kts | 114° |
| 2026-05-01 14:41 | 43.18645 | 17.13476 | 39190 ft | 466 kts | 114° |
| 2026-05-01 14:41 | 43.15673 | 17.21305 | 39191 ft | 466 kts | 114° |
| 2026-05-01 14:42 | 43.12670 | 17.29191 | 39182 ft | 467 kts | 115° |
| 2026-05-01 14:42 | 43.09662 | 17.37072 | 39187 ft | 467 kts | 115° |
| 2026-05-01 14:43 | 43.06644 | 17.44956 | 39186 ft | 467 kts | 115° |
| 2026-05-01 14:43 | 43.03616 | 17.52842 | 39184 ft | 467 kts | 115° |
| 2026-05-01 14:44 | 43.00596 | 17.60687 | 39183 ft | 467 kts | 115° |
| 2026-05-01 14:44 | 42.96042 | 17.72475 | 39173 ft | 468 kts | 115° |
| 2026-05-01 14:45 | 42.91475 | 17.84249 | 39167 ft | 468 kts | 115° |
| 2026-05-01 14:46 | 42.88422 | 17.92094 | 39169 ft | 469 kts | 116° |
| 2026-05-01 14:46 | 42.83810 | 18.03902 | 39159 ft | 470 kts | 116° |
| 2026-05-01 14:47 | 42.79943 | 18.11086 | 39151 ft | 474 kts | 134° |
| 2026-05-01 14:48 | 42.71621 | 18.18179 | 39146 ft | 476 kts | 156° |
| 2026-05-01 14:48 | 42.62511 | 18.23571 | 39153 ft | 476 kts | 156° |
| 2026-05-01 14:49 | 42.56555 | 18.27555 | 38602 ft | 474 kts | 144° |
| 2026-05-01 14:49 | 42.51950 | 18.33871 | 36983 ft | 478 kts | 124° |
| 2026-05-01 14:50 | 42.48795 | 18.40155 | 35536 ft | 483 kts | 122° |
| 2026-05-01 14:50 | 42.44416 | 18.48905 | 33847 ft | 482 kts | 122° |
| 2026-05-01 14:51 | 42.42502 | 18.52624 | 33172 ft | 478 kts | 123° |
| 2026-05-01 14:51 | 42.38684 | 18.59968 | 31650 ft | 475 kts | 123° |
| 2026-05-01 14:52 | 42.34917 | 18.67182 | 30540 ft | 463 kts | 122° |
| 2026-05-01 14:52 | 42.33068 | 18.70718 | 29962 ft | 458 kts | 122° |
| 2026-05-01 14:52 | 42.29322 | 18.77428 | 28894 ft | 446 kts | 133° |
| 2026-05-01 14:53 | 42.26921 | 18.80068 | 28368 ft | 442 kts | 146° |
| 2026-05-01 14:53 | 42.24191 | 18.81924 | 27827 ft | 439 kts | 158° |
| 2026-05-01 14:53 | 42.21326 | 18.83260 | 27309 ft | 433 kts | 160° |
| 2026-05-01 14:53 | 42.18488 | 18.84574 | 26792 ft | 428 kts | 160° |
| 2026-05-01 14:54 | 42.15684 | 18.85877 | 26264 ft | 423 kts | 160° |
| 2026-05-01 14:54 | 42.12925 | 18.87199 | 25766 ft | 418 kts | 156° |
| 2026-05-01 14:54 | 42.10348 | 18.88947 | 25252 ft | 412 kts | 147° |
| 2026-05-01 14:54 | 42.08043 | 18.91190 | 24752 ft | 406 kts | 137° |
| 2026-05-01 14:55 | 42.06016 | 18.93799 | 24261 ft | 401 kts | 133° |
| 2026-05-01 14:55 | 42.04038 | 18.96441 | 23765 ft | 398 kts | 134° |
| 2026-05-01 14:55 | 42.02050 | 18.99078 | 23219 ft | 394 kts | 134° |
| 2026-05-01 14:55 | 42.00130 | 19.01615 | 22740 ft | 389 kts | 134° |
| 2026-05-01 14:56 | 41.98208 | 19.04149 | 22253 ft | 385 kts | 134° |
| 2026-05-01 14:56 | 41.96306 | 19.06655 | 21768 ft | 380 kts | 134° |
| 2026-05-01 14:56 | 41.94426 | 19.09130 | 21282 ft | 376 kts | 134° |
| 2026-05-01 14:56 | 41.92563 | 19.11580 | 20821 ft | 373 kts | 134° |
| 2026-05-01 14:57 | 41.90711 | 19.14015 | 20351 ft | 370 kts | 133° |
| 2026-05-01 14:57 | 41.86916 | 19.19009 | 19366 ft | 398 kts | 133° |
| 2026-05-01 14:57 | 41.84923 | 19.21641 | 18842 ft | 404 kts | 133° |
| 2026-05-01 14:58 | 41.82918 | 19.24286 | 18301 ft | 403 kts | 133° |
| 2026-05-01 14:58 | 41.80926 | 19.26910 | 17757 ft | 399 kts | 133° |
| 2026-05-01 14:58 | 41.78927 | 19.29537 | 17228 ft | 393 kts | 133° |
| 2026-05-01 14:58 | 41.77045 | 19.32124 | 16720 ft | 385 kts | 128° |
| 2026-05-01 14:59 | 41.75339 | 19.34860 | 16216 ft | 380 kts | 127° |
| 2026-05-01 14:59 | 41.73659 | 19.37552 | 15717 ft | 375 kts | 127° |
| 2026-05-01 14:59 | 41.71993 | 19.40214 | 15214 ft | 370 kts | 127° |
| 2026-05-01 14:59 | 41.70346 | 19.42842 | 14736 ft | 366 kts | 127° |
| 2026-05-01 15:00 | 41.67108 | 19.48006 | 13748 ft | 358 kts | 127° |
| 2026-05-01 15:00 | 41.65698 | 19.50244 | 13315 ft | 354 kts | 127° |
| 2026-05-01 15:00 | 41.63871 | 19.52432 | 12843 ft | 354 kts | 146° |
| 2026-05-01 15:01 | 41.61646 | 19.53674 | 12374 ft | 354 kts | 166° |
| 2026-05-01 15:01 | 41.59176 | 19.54097 | 11895 ft | 351 kts | 173° |
| 2026-05-01 15:01 | 41.56787 | 19.54409 | 11435 ft | 348 kts | 173° |
| 2026-05-01 15:01 | 41.54356 | 19.54726 | 10959 ft | 345 kts | 173° |
| 2026-05-01 15:02 | 41.51987 | 19.55041 | 10341 ft | 347 kts | 173° |
| 2026-05-01 15:02 | 41.51169 | 19.55151 | 10259 ft | 344 kts | 173° |
| 2026-05-01 15:02 | 41.47322 | 19.55671 | 10047 ft | 321 kts | 173° |
| 2026-05-01 15:02 | 41.45134 | 19.55965 | 9917 ft | 309 kts | 172° |
| 2026-05-01 15:03 | 41.43064 | 19.56244 | 9739 ft | 297 kts | 173° |
| 2026-05-01 15:03 | 41.41036 | 19.56517 | 9358 ft | 291 kts | 172° |
| 2026-05-01 15:03 | 41.39031 | 19.56791 | 8970 ft | 288 kts | 172° |
| 2026-05-01 15:03 | 41.37042 | 19.57063 | 8594 ft | 286 kts | 172° |
| 2026-05-01 15:04 | 41.35068 | 19.57333 | 8219 ft | 285 kts | 171° |
| 2026-05-01 15:04 | 41.33097 | 19.57600 | 7845 ft | 283 kts | 171° |
| 2026-05-01 15:04 | 41.31123 | 19.57866 | 7468 ft | 282 kts | 171° |
| 2026-05-01 15:04 | 41.29195 | 19.58126 | 7130 ft | 281 kts | 171° |
| 2026-05-01 15:05 | 41.27279 | 19.58384 | 7007 ft | 275 kts | 171° |
| 2026-05-01 15:05 | 41.25323 | 19.58651 | 6991 ft | 281 kts | 171° |
| 2026-05-01 15:05 | 41.23387 | 19.58918 | 6988 ft | 279 kts | 171° |
| 2026-05-01 15:05 | 41.21453 | 19.59182 | 6991 ft | 279 kts | 171° |
| 2026-05-01 15:06 | 41.19589 | 19.59806 | 6987 ft | 274 kts | 149° |
| 2026-05-01 15:06 | 41.18162 | 19.61388 | 6853 ft | 266 kts | 123° |
| 2026-05-01 15:06 | 41.17433 | 19.63615 | 6454 ft | 265 kts | 97° |
| 2026-05-01 15:06 | 41.17492 | 19.66035 | 6104 ft | 262 kts | 82° |
| 2026-05-01 15:07 | 41.17746 | 19.68364 | 5954 ft | 247 kts | 81° |
| 2026-05-01 15:07 | 41.17984 | 19.70554 | 5823 ft | 232 kts | 81° |
| 2026-05-01 15:07 | 41.18290 | 19.72571 | 5733 ft | 221 kts | 66° |
| 2026-05-01 15:07 | 41.19217 | 19.74127 | 5647 ft | 210 kts | 36° |
| 2026-05-01 15:08 | 41.20558 | 19.74772 | 5568 ft | 204 kts | 7° |
| 2026-05-01 15:08 | 41.21930 | 19.74634 | 5508 ft | 191 kts | 358° |
| 2026-05-01 15:08 | 41.23196 | 19.74459 | 5448 ft | 180 kts | 359° |
| 2026-05-01 15:08 | 41.24416 | 19.74295 | 5359 ft | 168 kts | 359° |
| 2026-05-01 15:09 | 41.25538 | 19.74145 | 5268 ft | 157 kts | 0° |
| 2026-05-01 15:09 | 41.26553 | 19.74009 | 5142 ft | 143 kts | 0° |
| 2026-05-01 15:09 | 41.27526 | 19.73881 | 4914 ft | 139 kts | 1° |
| 2026-05-01 15:09 | 41.28495 | 19.73758 | 4620 ft | 139 kts | 1° |
| 2026-05-01 15:10 | 41.29454 | 19.73638 | 4344 ft | 136 kts | 1° |
| 2026-05-01 15:10 | 41.31013 | 19.73438 | 3864 ft | 136 kts | 1° |
| 2026-05-01 15:10 | 41.31948 | 19.73313 | 3603 ft | 134 kts | 1° |
| 2026-05-01 15:11 | 41.32871 | 19.73189 | 3425 ft | 132 kts | 1° |
| 2026-05-01 15:11 | 41.34695 | 19.72960 | 2891 ft | 131 kts | 0° |
| 2026-05-01 15:11 | 41.35610 | 19.72824 | 2516 ft | 135 kts | 358° |
| 2026-05-01 15:12 | 41.36560 | 19.72638 | 2116 ft | 140 kts | 359° |
| 2026-05-01 15:12 | 41.38489 | 19.72359 | 1334 ft | 144 kts | 359° |
| 2026-05-01 15:12 | 41.39626 | 19.72237 | 1385 ft | 181 kts | 358° |
| 2026-05-01 15:13 | 41.43692 | 19.71764 | 3742 ft | 213 kts | 359° |
| 2026-05-01 15:14 | 41.46666 | 19.71365 | 5688 ft | 219 kts | 358° |
| 2026-05-01 15:14 | 41.48204 | 19.71162 | 6388 ft | 223 kts | 356° |
| 2026-05-01 15:14 | 41.51040 | 19.69148 | 6989 ft | 241 kts | 320° |
| 2026-05-01 15:15 | 41.53418 | 19.66015 | 6997 ft | 239 kts | 318° |
| 2026-05-01 15:15 | 41.55828 | 19.62944 | 7003 ft | 239 kts | 320° |
| 2026-05-01 15:16 | 41.58293 | 19.59956 | 7000 ft | 239 kts | 321° |
| 2026-05-01 15:16 | 41.60739 | 19.57004 | 7003 ft | 231 kts | 321° |
| 2026-05-01 15:17 | 41.63122 | 19.54127 | 7008 ft | 232 kts | 321° |
| 2026-05-01 15:18 | 41.64837 | 19.48456 | 7013 ft | 243 kts | 248° |
| 2026-05-01 15:18 | 41.63820 | 19.46629 | 7015 ft | 250 kts | 216° |
| 2026-05-01 15:19 | 41.59219 | 19.47251 | 7008 ft | 237 kts | 131° |
| 2026-05-01 15:19 | 41.57082 | 19.50573 | 7008 ft | 239 kts | 125° |
| 2026-05-01 15:19 | 41.55904 | 19.52393 | 7000 ft | 273 kts | 134° |
| 2026-05-01 15:20 | 41.52545 | 19.54738 | 6997 ft | 280 kts | 163° |
| 2026-05-01 15:20 | 41.50641 | 19.55254 | 7002 ft | 278 kts | 169° |
| 2026-05-01 15:20 | 41.48715 | 19.55581 | 6999 ft | 280 kts | 172° |
| 2026-05-01 15:21 | 41.46778 | 19.55832 | 6953 ft | 277 kts | 172° |
| 2026-05-01 15:21 | 41.44907 | 19.56052 | 6835 ft | 262 kts | 172° |
| 2026-05-01 15:21 | 41.43139 | 19.56263 | 6697 ft | 247 kts | 172° |
| 2026-05-01 15:21 | 41.41459 | 19.56475 | 6457 ft | 238 kts | 171° |
| 2026-05-01 15:22 | 41.38188 | 19.56913 | 5942 ft | 237 kts | 171° |
| 2026-05-01 15:22 | 41.36534 | 19.57138 | 5688 ft | 239 kts | 170° |
| 2026-05-01 15:22 | 41.34882 | 19.57362 | 5434 ft | 238 kts | 171° |
| 2026-05-01 15:23 | 41.33232 | 19.57586 | 5178 ft | 236 kts | 171° |
| 2026-05-01 15:23 | 41.31603 | 19.57806 | 4933 ft | 234 kts | 171° |
| 2026-05-01 15:23 | 41.29986 | 19.58028 | 4673 ft | 234 kts | 171° |
| 2026-05-01 15:23 | 41.28358 | 19.58250 | 4416 ft | 235 kts | 170° |
| 2026-05-01 15:24 | 41.26727 | 19.58472 | 4171 ft | 236 kts | 171° |
| 2026-05-01 15:24 | 41.25094 | 19.58695 | 3996 ft | 233 kts | 171° |
| 2026-05-01 15:24 | 41.23520 | 19.58906 | 3993 ft | 227 kts | 171° |
| 2026-05-01 15:24 | 41.21913 | 19.59123 | 3986 ft | 237 kts | 170° |
| 2026-05-01 15:25 | 41.20300 | 19.59340 | 3995 ft | 231 kts | 171° |
| 2026-05-01 15:25 | 41.18785 | 19.59872 | 3985 ft | 222 kts | 145° |
| 2026-05-01 15:25 | 41.17746 | 19.61322 | 3987 ft | 219 kts | 112° |
| 2026-05-01 15:25 | 41.17466 | 19.63232 | 3986 ft | 208 kts | 83° |
| 2026-05-01 15:26 | 41.17623 | 19.65088 | 3978 ft | 195 kts | 82° |
| 2026-05-01 15:26 | 41.17765 | 19.66801 | 3983 ft | 180 kts | 83° |
| 2026-05-01 15:26 | 41.17890 | 19.68388 | 3983 ft | 165 kts | 82° |
| 2026-05-01 15:26 | 41.18004 | 19.69837 | 3982 ft | 151 kts | 83° |
| 2026-05-01 15:27 | 41.18104 | 19.71185 | 3995 ft | 141 kts | 84° |
| 2026-05-01 15:27 | 41.18194 | 19.72425 | 3987 ft | 130 kts | 83° |
| 2026-05-01 15:27 | 41.18314 | 19.73679 | 3982 ft | 144 kts | 72° |
| 2026-05-01 15:28 | 41.19924 | 19.74954 | 3746 ft | 150 kts | 357° |
| 2026-05-01 15:28 | 41.20929 | 19.74768 | 3687 ft | 139 kts | 359° |
| 2026-05-01 15:28 | 41.21864 | 19.74625 | 3487 ft | 134 kts | 0° |
| 2026-05-01 15:29 | 41.23727 | 19.74390 | 2978 ft | 136 kts | 1° |
| 2026-05-01 15:29 | 41.24665 | 19.74270 | 2728 ft | 135 kts | 2° |
| 2026-05-01 15:29 | 41.26490 | 19.74041 | 2474 ft | 132 kts | 1° |
| 2026-05-01 15:30 | 41.28267 | 19.73706 | 2173 ft | 132 kts | 359° |
| 2026-05-01 15:31 | 41.31845 | 19.73199 | 1984 ft | 129 kts | 1° |
| 2026-05-01 15:31 | 41.33630 | 19.72945 | 1684 ft | 130 kts | 360° |
| 2026-05-01 15:32 | 41.35341 | 19.72764 | 1267 ft | 118 kts | 1° |
| 2026-05-01 15:32 | 41.36975 | 19.72603 | 877 ft | 123 kts | 359° |
| 2026-05-01 15:33 | 41.39520 | 19.72295 | 359 ft | 120 kts | 0° |
| 2026-05-01 15:34 | 41.41630 | 19.72046 | 126 ft | 51 kts | 353° |